Time;durP1;ratioP1;P1;durP2;ratioP2;P2;SDS_P1;SDS_P2;PMS_P1;PMS_P2;Temp;Humidity;BMP_temperature;BMP_pressure;BME280_temperature;BME280_humidity;BME280_pressure;Samples;Min_cycle;Max_cycle;Signal;HPM_P1;HPM_P2
2024/04/03 00:00:54;;;;;;;14.73;5.32;;;8.70;99.90;;;;;;4986028;28;20053;-79
2024/04/03 00:03:20;;;;;;;16.17;5.43;;;8.70;99.90;;;;;;4972603;28;20045;-79
2024/04/03 00:05:46;;;;;;;13.25;6.03;;;8.70;99.90;;;;;;4970149;28;20041;-79
2024/04/03 00:08:12;;;;;;;12.15;5.97;;;8.70;99.90;;;;;;4972592;28;20050;-79
2024/04/03 00:10:40;;;;;;;15.50;6.38;;;8.70;99.90;;;;;;4986288;28;20104;-79
2024/04/03 00:13:06;;;;;;;20.48;8.30;;;8.70;99.90;;;;;;4988188;28;20073;-79
2024/04/03 00:15:32;;;;;;;16.20;7.55;;;8.70;99.90;;;;;;4987557;28;20069;-79
2024/04/03 00:18:00;;;;;;;14.80;7.75;;;8.70;99.90;;;;;;4970203;28;20046;-79
2024/04/03 00:20:26;;;;;;;18.55;8.30;;;8.70;99.90;;;;;;4971575;28;20077;-79
2024/04/03 00:22:52;;;;;;;20.23;9.27;;;8.70;99.90;;;;;;4969932;28;20088;-79
2024/04/03 00:25:18;;;;;;;16.33;7.68;;;8.70;99.90;;;;;;4984842;28;20050;-80
2024/04/03 00:27:44;;;;;;;17.40;7.60;;;8.80;99.90;;;;;;4967807;28;20092;-79
2024/04/03 00:30:10;;;;;;;23.75;7.80;;;8.80;99.90;;;;;;4971447;28;20554;-79
2024/04/03 00:32:36;;;;;;;18.70;7.07;;;8.80;99.90;;;;;;5016326;28;20054;-79
2024/04/03 00:35:02;;;;;;;23.45;8.73;;;8.80;99.90;;;;;;4972983;28;20069;-80
2024/04/03 00:37:35;;;;;;;21.75;9.27;;;8.80;99.90;;;;;;5000331;28;20042;-79
2024/04/03 00:40:01;;;;;;;14.55;7.45;;;8.80;99.90;;;;;;4973780;28;20038;-80
2024/04/03 00:42:27;;;;;;;17.92;7.75;;;8.90;99.90;;;;;;4966422;28;20057;-79
2024/04/03 00:44:56;;;;;;;19.27;7.65;;;8.90;99.90;;;;;;4985806;28;20045;-80
2024/04/03 00:47:22;;;;;;;20.67;8.38;;;8.90;99.90;;;;;;4957439;28;20109;-79
2024/04/03 00:49:49;;;;;;;17.90;8.10;;;8.90;99.90;;;;;;4962828;28;20054;-79
2024/04/03 00:52:17;;;;;;;14.95;6.45;;;8.90;99.90;;;;;;4985432;28;20041;-80
2024/04/03 00:54:47;;;;;;;22.08;8.35;;;8.90;99.90;;;;;;4981397;28;20042;-79
2024/04/03 00:57:14;;;;;;;17.17;8.15;;;8.90;99.90;;;;;;5001074;28;20577;-80
2024/04/03 00:59:40;;;;;;;19.40;7.88;;;8.90;99.90;;;;;;4985494;28;20152;-79
2024/04/03 01:02:10;;;;;;;22.00;8.50;;;8.90;99.90;;;;;;4985713;28;20125;-79
2024/04/03 01:04:36;;;;;;;19.27;6.30;;;8.90;99.90;;;;;;4982746;28;20044;-79
2024/04/03 01:07:08;;;;;;;18.75;6.88;;;8.90;99.90;;;;;;4967735;28;20050;-79
2024/04/03 01:09:35;;;;;;;16.77;6.80;;;8.90;99.90;;;;;;4986172;28;20120;-79
2024/04/03 01:12:01;;;;;;;19.05;6.90;;;8.90;99.90;;;;;;4980646;28;20582;-79
2024/04/03 01:14:27;;;;;;;23.25;7.35;;;8.90;99.90;;;;;;4986887;28;20061;-79
2024/04/03 01:16:53;;;;;;;17.25;6.45;;;8.90;99.90;;;;;;4959738;28;20414;-79
2024/04/03 01:19:18;;;;;;;18.45;7.03;;;8.90;99.90;;;;;;4983456;28;20038;-80
2024/04/03 01:21:44;;;;;;;21.73;6.90;;;8.90;99.90;;;;;;4972123;28;20038;-80
2024/04/03 01:24:10;;;;;;;19.23;7.03;;;8.90;99.90;;;;;;5017347;28;20038;-79
2024/04/03 01:26:36;;;;;;;16.80;6.25;;;8.90;99.90;;;;;;4998564;28;20042;-79
2024/04/03 01:29:02;;;;;;;22.10;7.28;;;8.90;99.90;;;;;;4986521;28;20206;-79
2024/04/03 01:31:27;;;;;;;22.85;7.10;;;8.90;99.90;;;;;;4981953;28;20042;-79
2024/04/03 01:33:53;;;;;;;19.83;6.80;;;8.90;99.90;;;;;;4968293;28;20050;-79
2024/04/03 01:36:19;;;;;;;20.73;6.53;;;9.10;99.90;;;;;;4981187;28;20080;-79
2024/04/03 01:38:48;;;;;;;18.75;6.07;;;8.90;99.90;;;;;;5018995;28;20073;-79
2024/04/03 01:41:14;;;;;;;22.08;7.53;;;9.00;99.90;;;;;;5016029;28;20077;-79
2024/04/03 01:43:40;;;;;;;22.30;7.88;;;8.90;99.90;;;;;;4962207;28;20042;-80
2024/04/03 01:46:06;;;;;;;22.08;7.35;;;8.90;99.90;;;;;;4999647;28;20042;-79
2024/04/03 01:48:31;;;;;;;19.67;7.18;;;8.90;99.90;;;;;;4966127;28;20809;-81
2024/04/03 01:50:57;;;;;;;19.08;6.63;;;8.90;99.90;;;;;;4968077;28;20212;-80
2024/04/03 01:53:26;;;;;;;18.50;6.70;;;8.90;99.90;;;;;;4983105;28;20042;-80
2024/04/03 01:55:56;;;;;;;19.70;6.93;;;8.90;99.90;;;;;;4982325;28;20568;-80
2024/04/03 01:58:22;;;;;;;16.88;6.63;;;8.90;99.90;;;;;;4977598;28;20061;-80
2024/04/03 02:00:49;;;;;;;18.05;7.25;;;8.90;99.90;;;;;;4978981;28;20137;-80
2024/04/03 02:03:15;;;;;;;20.85;7.07;;;8.90;99.90;;;;;;4997884;28;20160;-80
2024/04/03 02:05:50;;;;;;;16.70;6.70;;;8.90;99.90;;;;;;4965583;28;20057;-80
2024/04/03 02:08:16;;;;;;;22.08;7.43;;;8.90;99.90;;;;;;4975081;28;20387;-80
2024/04/03 02:10:44;;;;;;;19.38;6.85;;;8.90;99.90;;;;;;4988235;28;20057;-80
2024/04/03 02:13:09;;;;;;;17.08;5.78;;;8.90;99.90;;;;;;5006965;28;20096;-80
2024/04/03 02:15:35;;;;;;;16.10;6.30;;;8.90;99.90;;;;;;4986853;28;20042;-80
2024/04/03 02:18:01;;;;;;;16.85;6.43;;;9.00;99.90;;;;;;5005173;28;20496;-81
2024/04/03 02:20:27;;;;;;;22.55;7.38;;;8.90;99.90;;;;;;4973221;28;20567;-80
2024/04/03 02:22:53;;;;;;;24.17;6.78;;;8.90;99.90;;;;;;5021427;28;20642;-80
2024/04/03 02:25:20;;;;;;;19.48;7.22;;;9.00;99.90;;;;;;4970692;28;20125;-80
2024/04/03 02:27:45;;;;;;;19.55;6.32;;;8.90;99.90;;;;;;5020569;28;20052;-82
2024/04/03 02:30:11;;;;;;;19.45;6.97;;;9.00;99.90;;;;;;4971026;28;20050;-80
2024/04/03 02:32:40;;;;;;;19.85;6.82;;;9.00;99.90;;;;;;4972288;28;20056;-81
2024/04/03 02:35:06;;;;;;;19.05;7.32;;;9.00;99.90;;;;;;4970047;28;20467;-81
2024/04/03 02:37:32;;;;;;;17.42;7.38;;;9.10;99.90;;;;;;4991798;28;20073;-81
2024/04/03 02:40:00;;;;;;;19.67;7.57;;;9.10;99.90;;;;;;4983711;28;20089;-81
2024/04/03 02:42:29;;;;;;;19.42;7.63;;;9.10;99.90;;;;;;4988755;28;20050;-81
2024/04/03 02:44:55;;;;;;;24.83;8.30;;;9.10;99.90;;;;;;5015552;28;20054;-81
2024/04/03 02:47:20;;;;;;;18.13;7.82;;;9.10;99.90;;;;;;4985891;28;20043;-80
2024/04/03 02:49:46;;;;;;;19.45;7.88;;;9.20;99.90;;;;;;5017219;28;20100;-80
2024/04/03 02:52:12;;;;;;;16.25;7.97;;;9.20;99.90;;;;;;4972683;28;20049;-80
2024/04/03 02:54:41;;;;;;;16.23;7.15;;;9.20;99.90;;;;;;4970684;28;20041;-80
2024/04/03 02:57:06;;;;;;;16.10;7.53;;;9.20;99.90;;;;;;4978998;28;20482;-80
2024/04/03 02:59:35;;;;;;;15.70;8.02;;;9.10;99.90;;;;;;4985549;28;20057;-79
2024/04/03 03:02:03;;;;;;;18.50;8.20;;;9.10;99.90;;;;;;5003002;28;20398;-80
2024/04/03 03:04:41;;;;;;;15.48;7.47;;;9.10;99.90;;;;;;4984956;28;20046;-79
2024/04/03 03:07:08;;;;;;;18.33;8.05;;;9.10;99.90;;;;;;4983530;28;20052;-79
2024/04/03 03:09:35;;;;;;;15.07;7.55;;;9.10;99.90;;;;;;4990460;28;20073;-79
2024/04/03 03:12:01;;;;;;;21.13;8.32;;;9.10;99.90;;;;;;4970612;28;20046;-80
2024/04/03 03:14:26;;;;;;;20.65;8.60;;;9.20;99.90;;;;;;4969068;28;20410;-79
2024/04/03 03:16:52;;;;;;;17.13;8.32;;;9.10;99.90;;;;;;4971449;28;20552;-79
2024/04/03 03:19:18;;;;;;;18.13;8.77;;;9.00;99.90;;;;;;4986973;28;20037;-79
2024/04/03 03:21:44;;;;;;;21.85;9.07;;;9.10;99.90;;;;;;4969063;28;20061;-79
2024/04/03 03:24:09;;;;;;;18.65;8.98;;;9.10;99.90;;;;;;4971841;28;20513;-79
2024/04/03 03:26:35;;;;;;;21.73;9.05;;;9.10;99.90;;;;;;4985501;28;20310;-79
2024/04/03 03:29:01;;;;;;;20.52;9.50;;;9.10;99.90;;;;;;4988547;28;20100;-79
2024/04/03 03:31:28;;;;;;;21.50;10.30;;;9.10;99.90;;;;;;4981172;28;20286;-79
2024/04/03 03:33:54;;;;;;;21.85;10.40;;;9.00;99.90;;;;;;4974722;28;20042;-79
2024/04/03 03:36:20;;;;;;;30.95;12.05;;;8.90;99.90;;;;;;4969406;28;20140;-79
2024/04/03 03:38:46;;;;;;;19.65;10.63;;;9.10;99.90;;;;;;4973502;28;20494;-78
2024/04/03 03:41:12;;;;;;;26.20;11.95;;;9.00;99.90;;;;;;4969019;28;20061;-79
2024/04/03 03:43:38;;;;;;;22.83;12.10;;;9.00;99.90;;;;;;4987097;28;20077;-78
2024/04/03 03:46:03;;;;;;;20.38;12.05;;;9.00;99.90;;;;;;4982667;28;20041;-78
2024/04/03 03:53:59;;;;;;;22.08;11.55;;;9.00;99.90;;;;;;4988003;28;20042;-78
2024/04/03 03:56:25;;;;;;;24.42;12.18;;;8.90;99.90;;;;;;4981747;28;20129;-78
2024/04/03 03:58:51;;;;;;;20.63;12.18;;;8.90;99.90;;;;;;4974004;28;20418;-78
2024/04/03 04:01:17;;;;;;;26.27;13.23;;;9.00;99.90;;;;;;4967284;28;20121;-78
2024/04/03 04:03:43;;;;;;;21.23;12.45;;;8.90;99.90;;;;;;5001829;28;20088;-79
2024/04/03 04:06:09;;;;;;;20.92;12.80;;;9.00;99.90;;;;;;4969371;28;20081;-78
2024/04/03 04:08:34;;;;;;;22.85;12.90;;;8.90;99.90;;;;;;4969945;28;20707;-79
2024/04/03 04:11:00;;;;;;;25.17;13.80;;;8.90;99.90;;;;;;4973566;28;20104;-78
2024/04/03 04:13:26;;;;;;;24.33;14.30;;;8.90;99.90;;;;;;4984482;28;20514;-79
2024/04/03 04:15:52;;;;;;;23.75;13.23;;;8.90;99.90;;;;;;4972270;28;20042;-78
2024/04/03 04:18:19;;;;;;;25.23;15.07;;;8.80;99.90;;;;;;4968261;28;20406;-77
2024/04/03 04:20:55;;;;;;;26.55;14.73;;;9.00;99.90;;;;;;4973572;28;20046;-77
2024/04/03 04:23:21;;;;;;;24.98;14.10;;;8.90;99.90;;;;;;4970004;28;20064;-77
2024/04/03 04:26:06;;;;;;;29.33;16.33;;;8.90;99.90;;;;;;4983224;28;20054;-77
2024/04/03 04:28:32;;;;;;;28.33;16.55;;;8.90;99.90;;;;;;4986049;28;20092;-77
2024/04/03 04:31:03;;;;;;;27.92;16.50;;;8.90;99.90;;;;;;4968575;28;20148;-77
2024/04/03 04:33:30;;;;;;;32.30;17.92;;;8.90;99.90;;;;;;5004513;28;20049;-78
2024/04/03 04:35:57;;;;;;;36.20;19.33;;;8.90;99.90;;;;;;4983874;28;20057;-77
2024/04/03 04:38:26;;;;;;;30.30;17.15;;;8.90;99.90;;;;;;4989702;28;20048;-78
2024/04/03 04:40:56;;;;;;;32.83;18.90;;;8.90;99.90;;;;;;4982392;28;20726;-77
2024/04/03 04:43:23;;;;;;;29.38;17.75;;;8.90;99.90;;;;;;4987613;28;20040;-77
2024/04/03 04:46:00;;;;;;;28.85;16.88;;;8.90;99.90;;;;;;4980236;28;20398;-78
2024/04/03 04:48:28;;;;;;;34.85;19.95;;;8.90;99.90;;;;;;4985863;28;20033;-77
2024/04/03 04:50:56;;;;;;;26.42;17.63;;;9.00;99.90;;;;;;4970784;28;20042;-78
2024/04/03 04:53:21;;;;;;;33.25;19.48;;;8.90;99.90;;;;;;4969000;28;20042;-77
2024/04/03 04:56:02;;;;;;;35.85;20.33;;;8.90;99.90;;;;;;4984450;28;20038;-77
2024/04/03 04:58:28;;;;;;;37.65;21.75;;;8.90;99.90;;;;;;4970851;28;20506;-77
2024/04/03 05:01:05;;;;;;;32.92;20.95;;;8.90;99.90;;;;;;4968103;28;20169;-77
2024/04/03 05:03:31;;;;;;;35.60;21.10;;;8.90;99.90;;;;;;5009727;28;20053;-79
2024/04/03 05:05:57;;;;;;;31.95;19.35;;;8.90;99.90;;;;;;4983037;28;20045;-78
2024/04/03 05:08:23;;;;;;;34.10;20.35;;;8.80;99.90;;;;;;4970247;28;20038;-77
2024/04/03 05:10:59;;;;;;;31.63;20.02;;;8.90;99.90;;;;;;4969272;28;20131;-78
2024/04/03 05:13:32;;;;;;;30.17;19.70;;;8.90;99.90;;;;;;4983478;28;20052;-78
2024/04/03 05:16:07;;;;;;;27.08;19.95;;;8.90;99.90;;;;;;4980802;28;20041;-78
2024/04/03 05:18:34;;;;;;;31.90;20.42;;;8.90;99.90;;;;;;4971637;28;20076;-78
2024/04/03 05:21:00;;;;;;;33.78;21.20;;;9.00;99.90;;;;;;4986798;28;20045;-78
2024/04/03 05:23:26;;;;;;;29.50;19.88;;;8.90;99.90;;;;;;4966476;28;20104;-78
2024/04/03 05:25:58;;;;;;;35.33;21.95;;;8.90;99.90;;;;;;4969684;28;20492;-78
2024/04/03 05:28:28;;;;;;;32.40;21.40;;;9.00;99.90;;;;;;4969215;28;20083;-78
2024/04/03 05:30:54;;;;;;;34.03;22.20;;;9.00;99.90;;;;;;4985068;28;20042;-78
2024/04/03 05:33:21;;;;;;;33.60;21.27;;;8.90;99.90;;;;;;4983887;28;20034;-77
2024/04/03 05:36:01;;;;;;;31.23;20.08;;;9.00;99.90;;;;;;5001232;28;20695;-76
2024/04/03 05:38:27;;;;;;;29.58;19.80;;;9.00;99.90;;;;;;4982887;28;20050;-83
2024/04/03 05:40:53;;;;;;;33.40;22.15;;;9.00;99.90;;;;;;4971835;28;20050;-84
2024/04/03 05:43:20;;;;;;;32.13;22.88;;;9.00;99.90;;;;;;4974755;28;20095;-83
2024/04/03 05:45:47;;;;;;;35.03;22.92;;;9.10;99.90;;;;;;4987752;28;20407;-83
2024/04/03 05:48:14;;;;;;;33.40;21.98;;;9.00;99.90;;;;;;4976921;28;20038;-84
2024/04/03 05:50:40;;;;;;;31.63;22.13;;;9.10;99.90;;;;;;4986096;28;20057;-84
2024/04/03 06:04:26;;;;;;;29.20;21.50;;;9.10;99.90;;;;;;4857071;29;19972;-83
2024/04/03 06:07:59;;;;;;;;;;;;;;;;;;;;;
2024/04/03 06:15:32;;;;;;;;;;;;;;;;;;;;;
2024/04/03 06:18:24;;;;;;;29.77;22.13;;;9.20;99.90;;;;;;4821172;29;20085;-84
2024/04/03 06:21:50;;;;;;;34.25;23.25;;;9.20;99.90;;;;;;4788696;29;20142;-84
2024/04/03 06:24:27;;;;;;;28.23;22.40;;;9.30;99.90;;;;;;4759478;29;20692;-84
2024/04/03 06:27:27;;;;;;;32.83;22.52;;;9.30;99.90;;;;;;4797071;29;20069;-84
2024/04/03 06:30:04;;;;;;;29.83;22.58;;;9.30;99.90;;;;;;4783047;29;20055;-84
2024/04/03 06:33:02;;;;;;;35.50;24.92;;;9.30;99.90;;;;;;4852867;29;20187;-84
2024/04/03 06:35:53;;;;;;;28.15;21.60;;;9.30;99.90;;;;;;4879202;29;20052;-83
2024/04/03 06:39:23;;;;;;;30.42;23.48;;;9.40;99.90;;;;;;4891269;29;20449;-84
2024/04/03 06:42:32;;;;;;;28.52;22.40;;;9.40;99.90;;;;;;4908396;29;20048;-84
2024/04/03 06:45:26;;;;;;;34.58;23.67;;;9.50;99.90;;;;;;4891423;29;20564;-84
2024/04/03 06:52:34;;;;;;;28.02;20.83;;;9.50;99.90;;;;;;4890462;29;20095;-85
2024/04/03 06:56:00;;;;;;;25.83;19.98;;;9.60;99.90;;;;;;4930417;29;20058;-85
2024/04/03 06:59:15;;;;;;;30.65;23.08;;;9.60;99.90;;;;;;4890266;29;20056;-86
2024/04/03 07:02:24;;;;;;;26.85;21.25;;;9.60;99.90;;;;;;4859444;29;20087;-86
2024/04/03 07:17:28;;;;;;;;;;;;;;;;;;;;;
2024/04/03 07:20:40;;;;;;;;;;;;;;;;;;;;;
2024/04/03 07:23:28;;;;;;;24.10;19.40;;;9.80;99.90;;;;;;4847716;29;20131;-85
2024/04/03 07:26:23;;;;;;;25.20;18.95;;;9.80;99.90;;;;;;4877145;29;20302;-84
2024/04/03 07:29:02;;;;;;;24.55;18.08;;;9.80;99.90;;;;;;4906152;28;20058;-85
2024/04/03 07:31:31;;;;;;;26.15;19.15;;;9.90;99.90;;;;;;4933342;28;20645;-84
2024/04/03 07:33:58;;;;;;;26.73;19.23;;;9.90;99.90;;;;;;4972733;28;20042;-84
2024/04/03 07:36:44;;;;;;;23.80;17.63;;;9.90;99.90;;;;;;4988097;28;20100;-84
2024/04/03 07:39:20;;;;;;;24.10;17.65;;;9.90;99.90;;;;;;4971371;28;20077;-86
2024/04/03 07:41:46;;;;;;;20.05;15.98;;;9.90;99.90;;;;;;4990792;28;20038;-85
2024/04/03 07:44:24;;;;;;;19.95;16.20;;;10.00;99.90;;;;;;4985780;28;20072;-86
2024/04/03 07:46:50;;;;;;;19.90;16.27;;;10.00;99.90;;;;;;4974405;28;20410;-86
2024/04/03 07:49:18;;;;;;;20.08;15.32;;;10.00;99.90;;;;;;4966210;28;20065;-84
2024/04/03 07:51:46;;;;;;;19.98;15.60;;;10.00;99.90;;;;;;4984632;28;20045;-84
2024/04/03 07:54:15;;;;;;;16.85;14.48;;;10.00;99.90;;;;;;4991871;28;20125;-85
2024/04/03 07:56:50;;;;;;;22.25;16.70;;;10.00;99.90;;;;;;4984501;28;20086;-85
2024/04/03 07:59:34;;;;;;;;;;;;;;;;;;;;;
2024/04/03 08:02:00;;;;;;;22.85;15.65;;;10.10;99.90;;;;;;4986682;28;20042;-84
2024/04/03 08:04:28;;;;;;;17.15;14.07;;;10.10;99.90;;;;;;4971587;28;20042;-84
2024/04/03 08:06:54;;;;;;;16.02;13.35;;;10.10;99.90;;;;;;4970740;28;20046;-84
2024/04/03 08:09:20;;;;;;;18.08;15.13;;;10.10;99.90;;;;;;4987075;28;20056;-86
2024/04/03 08:11:47;;;;;;;20.95;15.43;;;10.10;99.90;;;;;;4984907;28;20057;-85
2024/04/03 08:14:19;;;;;;;17.95;14.38;;;10.10;99.90;;;;;;4973652;28;20052;-85
2024/04/03 08:16:45;;;;;;;15.88;13.57;;;10.10;99.90;;;;;;4967782;28;20069;-86
2024/04/03 08:19:17;;;;;;;15.38;12.95;;;10.20;99.90;;;;;;4987266;28;20041;-85
2024/04/03 08:21:46;;;;;;;16.20;12.57;;;10.20;99.90;;;;;;4984408;28;20050;-86
2024/04/03 08:24:18;;;;;;;13.88;12.13;;;10.20;99.90;;;;;;4987037;28;20499;-86
2024/04/03 08:27:04;;;;;;;15.95;13.70;;;10.20;99.90;;;;;;4987987;28;20046;-83
2024/04/03 08:29:32;;;;;;;15.43;11.73;;;10.20;99.90;;;;;;4973737;28;20038;-86
2024/04/03 08:32:02;;;;;;;15.32;13.68;;;10.30;99.90;;;;;;4983086;28;20162;-86
2024/04/03 08:35:00;;;;;;;17.27;12.73;;;10.40;99.90;;;;;;4970519;28;20046;-82
2024/04/03 08:37:41;;;;;;;;;;;;;;;;;;;;;
2024/04/03 08:40:39;;;;;;;13.40;9.93;;;10.40;99.90;;;;;;4987431;28;20042;-85
2024/04/03 08:43:41;;;;;;;12.52;10.25;;;10.50;99.90;;;;;;5004078;28;20049;-86
2024/04/03 08:46:09;;;;;;;13.30;10.95;;;10.60;99.90;;;;;;4969982;28;20077;-86
2024/04/03 08:49:02;;;;;;;16.67;12.70;;;10.60;99.90;;;;;;4984162;28;20061;-86
2024/04/03 08:51:31;;;;;;;12.57;11.05;;;10.70;99.90;;;;;;4971292;28;20049;-85
2024/04/03 08:54:27;;;;;;;12.35;9.88;;;10.70;99.90;;;;;;4972860;28;20391;-86
2024/04/03 08:57:22;;;;;;;13.52;10.10;;;10.70;99.90;;;;;;4967234;28;20043;-84
2024/04/03 08:59:48;;;;;;;13.18;10.40;;;10.80;99.90;;;;;;4975385;28;20441;-85
2024/04/03 09:02:21;;;;;;;12.70;10.23;;;10.80;99.90;;;;;;4987128;28;20104;-85
2024/04/03 09:04:50;;;;;;;14.77;9.85;;;10.70;99.90;;;;;;4993301;28;20283;-86
2024/04/03 09:07:20;;;;;;;13.73;11.50;;;10.70;99.90;;;;;;4972820;28;20034;-86
2024/04/03 09:09:47;;;;;;;11.65;9.38;;;10.80;99.90;;;;;;4973102;28;20050;-86
2024/04/03 09:12:13;;;;;;;14.25;11.65;;;10.80;99.90;;;;;;4974742;28;20038;-85
2024/04/03 09:14:44;;;;;;;11.57;8.65;;;10.80;99.90;;;;;;4973618;28;20046;-86
2024/04/03 09:17:21;;;;;;;10.97;8.93;;;10.90;99.90;;;;;;4974460;28;20050;-85
2024/04/03 09:19:54;;;;;;;12.52;9.48;;;10.90;99.90;;;;;;4991301;28;20052;-85
2024/04/03 09:22:33;;;;;;;11.48;8.63;;;10.90;99.90;;;;;;5011565;28;20045;-87
2024/04/03 09:25:03;;;;;;;10.30;9.20;;;10.90;99.90;;;;;;4975890;28;20045;-86
2024/04/03 09:27:29;;;;;;;10.45;7.82;;;10.90;99.90;;;;;;5002853;28;20050;-85
2024/04/03 09:29:56;;;;;;;11.25;8.95;;;11.00;99.90;;;;;;4974256;28;20532;-85
2024/04/03 09:32:22;;;;;;;10.05;8.30;;;10.90;99.90;;;;;;4977576;28;20049;-84
2024/04/03 09:34:50;;;;;;;11.05;8.80;;;10.90;99.90;;;;;;4976385;28;20045;-84
2024/04/03 09:37:16;;;;;;;11.05;8.40;;;10.90;99.90;;;;;;5001728;28;20196;-84
2024/04/03 09:39:42;;;;;;;9.18;8.05;;;10.90;99.90;;;;;;4987943;28;20144;-83
2024/04/03 09:42:13;;;;;;;14.18;10.88;;;10.80;99.90;;;;;;4990583;28;20045;-85
2024/04/03 09:44:40;;;;;;;10.90;9.45;;;10.80;99.90;;;;;;4974292;28;20034;-86
2024/04/03 09:47:54;;;;;;;9.88;8.88;;;10.80;99.90;;;;;;4979020;28;20052;-84
2024/04/03 09:50:30;;;;;;;10.75;9.00;;;10.80;99.90;;;;;;4970709;28;20452;-84
2024/04/03 09:53:02;;;;;;;11.15;9.93;;;10.70;99.90;;;;;;4974599;28;20089;-84
2024/04/03 09:55:32;;;;;;;11.15;9.70;;;10.70;99.90;;;;;;4990335;28;20506;-85
2024/04/03 09:58:12;;;;;;;11.63;10.15;;;10.70;99.90;;;;;;4973406;28;20498;-85
2024/04/03 10:00:49;;;;;;;12.93;11.65;;;10.70;99.90;;;;;;5009668;28;20540;-85
2024/04/03 10:03:29;;;;;;;12.77;11.32;;;10.80;99.90;;;;;;4974021;28;20054;-85
2024/04/03 10:06:06;;;;;;;12.07;10.73;;;10.80;99.90;;;;;;4973165;28;20433;-85
2024/04/03 10:08:37;;;;;;;12.43;11.32;;;10.90;99.90;;;;;;4975505;28;20347;-85
2024/04/03 10:11:11;;;;;;;12.45;11.05;;;10.90;99.90;;;;;;4976033;28;20126;-86
2024/04/03 10:13:41;;;;;;;13.13;10.90;;;10.90;99.90;;;;;;5008578;28;20050;-86
2024/04/03 10:16:15;;;;;;;12.98;11.50;;;10.90;99.90;;;;;;4973323;28;20495;-86
2024/04/03 10:18:47;;;;;;;13.35;11.95;;;10.90;99.90;;;;;;4985839;28;20045;-85
2024/04/03 10:21:15;;;;;;;12.57;11.30;;;11.00;99.90;;;;;;4975584;28;20048;-86
2024/04/03 10:23:53;;;;;;;15.57;12.40;;;11.00;99.90;;;;;;5022331;28;20053;-86
2024/04/03 10:26:30;;;;;;;13.18;11.52;;;11.00;99.90;;;;;;4972155;28;20046;-85
2024/04/03 10:29:12;;;;;;;15.68;12.00;;;11.00;99.90;;;;;;4990584;28;20597;-85
2024/04/03 10:31:46;;;;;;;14.27;12.80;;;11.00;99.90;;;;;;4973394;28;20112;-86
2024/04/03 10:34:17;;;;;;;12.60;11.23;;;11.00;99.90;;;;;;4977384;28;20046;-85
2024/04/03 10:36:43;;;;;;;12.02;10.27;;;11.00;99.90;;;;;;4972141;28;20052;-86
2024/04/03 10:39:17;;;;;;;13.40;10.13;;;11.00;99.90;;;;;;4974293;28;20737;-87
2024/04/03 10:41:59;;;;;;;14.68;10.77;;;11.10;99.90;;;;;;5005947;28;20046;-86
2024/04/03 10:44:28;;;;;;;15.20;10.30;;;11.00;99.90;;;;;;4971010;28;20248;-86
2024/04/03 10:47:13;;;;;;;14.23;11.32;;;11.00;99.90;;;;;;4987999;28;20045;-85
2024/04/03 10:49:39;;;;;;;15.18;11.55;;;11.00;99.90;;;;;;4973005;28;20053;-87
2024/04/03 10:52:07;;;;;;;12.82;11.45;;;11.00;99.90;;;;;;4990749;28;20068;-85
2024/04/03 10:54:38;;;;;;;;;;;11.00;99.90;;;;;;4971869;28;20108;-85
2024/04/03 10:57:05;;;;;;;12.63;11.32;;;10.90;99.90;;;;;;4974723;28;20370;-85
2024/04/03 10:59:31;;;;;;;12.52;11.23;;;10.90;99.90;;;;;;4975026;28;20128;-85
2024/04/03 11:01:57;;;;;;;17.13;13.43;;;11.00;99.90;;;;;;4988074;28;20132;-86
2024/04/03 11:04:35;;;;;;;14.98;13.45;;;10.90;99.90;;;;;;4984092;28;20064;-85
2024/04/03 11:07:01;;;;;;;13.20;11.80;;;11.00;99.90;;;;;;4988555;28;20157;-86
2024/04/03 11:09:27;;;;;;;13.98;11.70;;;11.10;99.90;;;;;;4973218;28;20124;-86
2024/04/03 11:12:14;;;;;;;14.00;12.32;;;11.20;99.90;;;;;;4974677;28;20054;-87
2024/04/03 11:14:40;;;;;;;11.80;10.57;;;11.30;99.90;;;;;;4991004;28;20049;-87
2024/04/03 11:17:11;;;;;;;12.88;10.98;;;11.40;99.90;;;;;;4974221;28;20434;-87
2024/04/03 11:19:43;;;;;;;11.43;9.85;;;11.40;99.90;;;;;;4991078;28;20048;-86
2024/04/03 11:22:09;;;;;;;10.80;8.98;;;11.50;99.90;;;;;;4988659;28;20157;-87
2024/04/03 11:24:35;;;;;;;11.07;8.63;;;11.60;99.90;;;;;;4989318;28;20156;-87
2024/04/03 11:27:01;;;;;;;9.05;7.55;;;11.60;99.90;;;;;;4986375;28;20043;-87
2024/04/03 11:29:30;;;;;;;11.63;7.53;;;11.60;99.90;;;;;;4976220;28;20034;-85
2024/04/03 11:31:58;;;;;;;9.53;8.53;;;11.70;99.90;;;;;;4973823;28;20046;-87
2024/04/03 11:34:27;;;;;;;9.18;7.45;;;11.70;99.90;;;;;;4971959;28;20053;-86
2024/04/03 11:36:54;;;;;;;9.05;7.78;;;11.70;99.90;;;;;;4989036;28;20062;-86
2024/04/03 11:39:28;;;;;;;10.25;6.93;;;11.60;99.90;;;;;;4973587;28;20045;-86
2024/04/03 11:41:54;;;;;;;10.20;6.68;;;11.60;99.90;;;;;;5005752;28;20486;-87
2024/04/03 11:44:24;;;;;;;11.82;6.80;;;11.60;99.90;;;;;;4989246;28;20045;-87
2024/04/03 11:46:49;;;;;;;8.50;6.00;;;11.60;99.90;;;;;;4971923;28;20491;-86
2024/04/03 11:49:15;;;;;;;9.13;5.68;;;11.60;99.90;;;;;;4974105;28;20055;-85
2024/04/03 11:51:41;;;;;;;8.57;4.90;;;11.60;99.90;;;;;;4973481;28;20517;-86
2024/04/03 11:54:15;;;;;;;7.82;6.20;;;11.60;99.90;;;;;;4976042;28;20037;-85
2024/04/03 12:12:56;;;;;;;7.68;5.28;;;11.70;99.90;;;;;;5004961;28;20087;-85
2024/04/03 12:15:47;;;;;;;7.32;5.60;;;11.70;99.90;;;;;;5003896;28;20532;-85
2024/04/03 12:18:13;;;;;;;9.25;6.00;;;11.70;99.90;;;;;;4971356;28;20187;-87
2024/04/03 12:21:01;;;;;;;7.32;5.38;;;11.70;99.90;;;;;;5021393;28;20129;-85
2024/04/03 12:23:36;;;;;;;6.40;5.10;;;11.70;99.90;;;;;;4987377;28;20116;-86
2024/04/03 12:26:19;;;;;;;6.63;4.45;;;11.70;99.90;;;;;;4982224;28;20053;-87
2024/04/03 12:28:46;;;;;;;7.45;4.97;;;11.70;99.90;;;;;;4972320;28;20126;-87
2024/04/03 12:31:21;;;;;;;6.03;5.28;;;11.70;99.90;;;;;;4989591;28;20052;-84
2024/04/03 12:33:56;;;;;;;7.43;6.13;;;11.80;99.90;;;;;;4985736;28;20056;-87
2024/04/03 12:36:48;;;;;;;6.90;6.22;;;11.90;99.90;;;;;;4983691;28;20044;-85
2024/04/03 12:39:43;;;;;;;8.07;6.82;;;12.10;99.90;;;;;;4956635;28;20051;-85
2024/04/03 12:42:12;;;;;;;7.40;6.60;;;12.40;99.90;;;;;;4967249;28;20049;-85
2024/04/03 12:44:48;;;;;;;7.00;6.30;;;12.70;99.90;;;;;;4950730;28;20050;-84
2024/04/03 12:47:14;;;;;;;9.20;6.50;;;12.90;99.90;;;;;;4967815;28;20140;-85
2024/04/03 12:49:40;;;;;;;6.57;5.43;;;13.00;99.90;;;;;;4951929;28;20089;-85
2024/04/03 12:52:16;;;;;;;6.15;5.55;;;13.00;99.90;;;;;;4953868;28;20046;-87
2024/04/03 12:54:45;;;;;;;5.30;4.80;;;12.90;99.90;;;;;;4950067;28;20061;-84
2024/04/03 12:57:10;;;;;;;5.85;3.92;;;12.90;99.90;;;;;;4952777;28;20046;-85
2024/04/03 12:59:39;;;;;;;4.97;3.80;;;12.80;99.90;;;;;;4938955;28;20117;-84
2024/04/03 13:02:06;;;;;;;6.05;4.00;;;12.70;99.90;;;;;;4953070;28;20121;-84
2024/04/03 13:04:31;;;;;;;4.43;2.92;;;12.70;99.90;;;;;;4950206;28;20053;-85
2024/04/03 13:07:00;;;;;;;3.70;3.30;;;12.70;99.90;;;;;;4992434;28;20243;-85
2024/04/03 13:09:55;;;;;;;;;;;;;;;;;;;;;
2024/04/03 13:12:49;;;;;;;4.85;4.03;;;12.80;99.90;;;;;;5004563;28;20165;-86
2024/04/03 13:19:24;;;;;;;5.80;4.82;;;12.90;99.90;;;;;;4951146;28;20050;-86
2024/04/03 13:22:11;;;;;;;6.78;4.38;;;12.90;99.90;;;;;;4934256;28;20031;-86
2024/04/03 13:24:46;;;;;;;7.05;5.38;;;12.90;99.90;;;;;;4937605;28;20137;-84
2024/04/03 13:27:49;;;;;;;4.50;4.10;;;13.00;99.90;;;;;;4939859;28;20062;-86
2024/04/03 13:30:20;;;;;;;5.10;4.60;;;13.00;99.90;;;;;;4928277;28;20059;-88
2024/04/03 13:33:04;;;;;;;6.13;4.88;;;12.90;99.90;;;;;;4925184;28;20039;-85
2024/04/03 13:36:08;;;;;;;5.10;4.47;;;12.80;99.90;;;;;;4926000;28;20133;-88
2024/04/03 13:38:46;;;;;;;6.50;4.00;;;12.70;99.90;;;;;;4933286;28;20518;-88
2024/04/03 13:42:00;;;;;;;5.85;4.20;;;12.70;99.90;;;;;;4943152;28;20130;-87
2024/04/03 13:44:35;;;;;;;4.00;3.60;;;12.70;99.90;;;;;;4925910;28;20058;-87
2024/04/03 13:47:01;;;;;;;4.30;3.80;;;12.80;99.90;;;;;;4939328;28;20814;-87
2024/04/03 13:49:32;;;;;;;5.65;4.95;;;12.80;99.90;;;;;;4945469;28;20046;-90
2024/04/03 13:52:14;;;;;;;5.80;4.72;;;12.90;99.90;;;;;;4952832;28;20574;-87
2024/04/03 13:54:41;;;;;;;5.97;5.38;;;12.90;99.90;;;;;;4986008;28;20053;-88
2024/04/03 13:57:20;;;;;;;6.03;5.45;;;12.90;99.90;;;;;;4983220;28;20542;-90
2024/04/03 13:59:56;;;;;;;5.97;5.38;;;12.90;99.90;;;;;;4973247;28;20691;-91
2024/04/03 14:02:22;;;;;;;7.70;5.70;;;12.90;99.90;;;;;;4989042;28;20069;-91
2024/04/03 14:04:48;;;;;;;7.18;6.43;;;13.00;99.90;;;;;;4973560;28;20107;-88
2024/04/03 14:07:16;;;;;;;7.88;5.72;;;13.00;99.90;;;;;;4987529;28;20058;-88
2024/04/03 14:09:41;;;;;;;5.53;4.90;;;13.10;99.90;;;;;;4976117;28;20045;-88
2024/04/03 14:12:16;;;;;;;5.03;4.50;;;13.20;99.90;;;;;;4975284;28;20490;-90
2024/04/03 14:14:42;;;;;;;5.18;4.40;;;13.10;99.90;;;;;;4976128;28;20038;-89